sensor_id;sensor_type;location;lat;lon;timestamp;temperature;humidity
23713;DHT22;12035;49.978;8.298;2023-09-19T00:01:30;21.60;64.10
23713;DHT22;12035;49.978;8.298;2023-09-19T00:06:28;21.60;64.20
23713;DHT22;12035;49.978;8.298;2023-09-19T00:11:26;21.60;64.50
23713;DHT22;12035;49.978;8.298;2023-09-19T00:16:25;21.60;64.50
23713;DHT22;12035;49.978;8.298;2023-09-19T00:21:22;21.60;64.70
23713;DHT22;12035;49.978;8.298;2023-09-19T00:26:19;21.50;64.60
23713;DHT22;12035;49.978;8.298;2023-09-19T00:31:16;21.50;64.70
23713;DHT22;12035;49.978;8.298;2023-09-19T00:36:15;21.50;64.60
23713;DHT22;12035;49.978;8.298;2023-09-19T00:41:12;21.50;64.70
23713;DHT22;12035;49.978;8.298;2023-09-19T00:46:09;21.50;64.70
23713;DHT22;12035;49.978;8.298;2023-09-19T00:51:06;21.50;64.70
23713;DHT22;12035;49.978;8.298;2023-09-19T00:56:05;21.50;64.80
23713;DHT22;12035;49.978;8.298;2023-09-19T01:01:04;21.40;65.00
23713;DHT22;12035;49.978;8.298;2023-09-19T01:06:02;21.40;65.00
23713;DHT22;12035;49.978;8.298;2023-09-19T01:11:08;21.40;64.90
23713;DHT22;12035;49.978;8.298;2023-09-19T01:16:16;21.40;65.20
23713;DHT22;12035;49.978;8.298;2023-09-19T01:21:23;21.40;65.30
23713;DHT22;12035;49.978;8.298;2023-09-19T01:26:35;21.30;65.30
23713;DHT22;12035;49.978;8.298;2023-09-19T01:31:51;21.30;65.50
23713;DHT22;12035;49.978;8.298;2023-09-19T01:36:49;21.30;65.50
23713;DHT22;12035;49.978;8.298;2023-09-19T01:41:54;21.20;65.30
23713;DHT22;12035;49.978;8.298;2023-09-19T01:46:59;21.20;65.80
23713;DHT22;12035;49.978;8.298;2023-09-19T01:52:05;21.20;65.60
23713;DHT22;12035;49.978;8.298;2023-09-19T01:57:12;21.20;65.70
23713;DHT22;12035;49.978;8.298;2023-09-19T02:02:14;21.20;65.60
23713;DHT22;12035;49.978;8.298;2023-09-19T02:07:12;21.10;65.60
23713;DHT22;12035;49.978;8.298;2023-09-19T02:12:12;21.10;65.60
23713;DHT22;12035;49.978;8.298;2023-09-19T02:17:11;21.10;65.70
23713;DHT22;12035;49.978;8.298;2023-09-19T02:22:09;21.00;65.70
23713;DHT22;12035;49.978;8.298;2023-09-19T02:27:06;21.00;65.60
23713;DHT22;12035;49.978;8.298;2023-09-19T02:32:03;20.90;65.60
23713;DHT22;12035;49.978;8.298;2023-09-19T02:37:02;20.80;65.60
23713;DHT22;12035;49.978;8.298;2023-09-19T02:42:02;20.80;65.70
23713;DHT22;12035;49.978;8.298;2023-09-19T02:47:00;20.80;65.60
23713;DHT22;12035;49.978;8.298;2023-09-19T02:51:57;20.70;65.50
23713;DHT22;12035;49.978;8.298;2023-09-19T02:56:55;20.70;65.40
23713;DHT22;12035;49.978;8.298;2023-09-19T03:01:56;20.70;65.30
23713;DHT22;12035;49.978;8.298;2023-09-19T03:06:53;20.60;65.20
23713;DHT22;12035;49.978;8.298;2023-09-19T03:11:54;20.60;65.10
23713;DHT22;12035;49.978;8.298;2023-09-19T03:16:51;20.50;64.90
23713;DHT22;12035;49.978;8.298;2023-09-19T03:21:49;20.50;64.80
23713;DHT22;12035;49.978;8.298;2023-09-19T03:26:46;20.40;64.70
23713;DHT22;12035;49.978;8.298;2023-09-19T03:31:44;20.40;64.70
23713;DHT22;12035;49.978;8.298;2023-09-19T03:36:41;20.40;64.80
23713;DHT22;12035;49.978;8.298;2023-09-19T03:41:39;20.30;64.80
23713;DHT22;12035;49.978;8.298;2023-09-19T03:46:36;20.20;64.90
23713;DHT22;12035;49.978;8.298;2023-09-19T03:51:34;20.30;64.90
23713;DHT22;12035;49.978;8.298;2023-09-19T03:56:31;20.20;64.90
23713;DHT22;12035;49.978;8.298;2023-09-19T04:01:29;20.10;64.90
23713;DHT22;12035;49.978;8.298;2023-09-19T04:06:28;20.10;65.10
23713;DHT22;12035;49.978;8.298;2023-09-19T04:11:25;20.10;65.10
23713;DHT22;12035;49.978;8.298;2023-09-19T04:16:22;20.10;65.10
23713;DHT22;12035;49.978;8.298;2023-09-19T04:21:20;20.10;65.10
23713;DHT22;12035;49.978;8.298;2023-09-19T04:26:17;20.10;65.20
23713;DHT22;12035;49.978;8.298;2023-09-19T04:31:14;20.10;65.10
23713;DHT22;12035;49.978;8.298;2023-09-19T04:36:12;20.10;65.00
23713;DHT22;12035;49.978;8.298;2023-09-19T04:41:10;20.00;64.70
23713;DHT22;12035;49.978;8.298;2023-09-19T04:46:08;20.10;64.60
23713;DHT22;12035;49.978;8.298;2023-09-19T04:51:06;20.00;64.20
23713;DHT22;12035;49.978;8.298;2023-09-19T04:56:03;20.00;64.10
23713;DHT22;12035;49.978;8.298;2023-09-19T05:01:04;20.00;64.00
23713;DHT22;12035;49.978;8.298;2023-09-19T05:06:03;19.90;64.00
23713;DHT22;12035;49.978;8.298;2023-09-19T05:11:01;19.90;64.10
23713;DHT22;12035;49.978;8.298;2023-09-19T05:16:00;19.80;64.30
23713;DHT22;12035;49.978;8.298;2023-09-19T05:21:02;19.80;64.20
23713;DHT22;12035;49.978;8.298;2023-09-19T05:25:59;19.70;64.10
23713;DHT22;12035;49.978;8.298;2023-09-19T05:30:56;19.70;63.90
23713;DHT22;12035;49.978;8.298;2023-09-19T05:35:54;19.60;64.00
23713;DHT22;12035;49.978;8.298;2023-09-19T05:40:53;19.60;64.20
23713;DHT22;12035;49.978;8.298;2023-09-19T05:45:50;19.60;64.50
23713;DHT22;12035;49.978;8.298;2023-09-19T05:50:47;19.50;64.70
23713;DHT22;12035;49.978;8.298;2023-09-19T05:55:45;19.50;64.80
23713;DHT22;12035;49.978;8.298;2023-09-19T06:00:44;19.50;65.00
23713;DHT22;12035;49.978;8.298;2023-09-19T06:05:42;19.60;65.30
23713;DHT22;12035;49.978;8.298;2023-09-19T06:10:41;19.60;65.30
23713;DHT22;12035;49.978;8.298;2023-09-19T06:15:39;19.70;65.20
23713;DHT22;12035;49.978;8.298;2023-09-19T06:20:37;19.70;65.00
23713;DHT22;12035;49.978;8.298;2023-09-19T06:25:39;19.70;65.20
23713;DHT22;12035;49.978;8.298;2023-09-19T06:30:38;19.70;65.50
23713;DHT22;12035;49.978;8.298;2023-09-19T06:35:38;19.80;65.60
23713;DHT22;12035;49.978;8.298;2023-09-19T06:40:36;20.00;65.20
23713;DHT22;12035;49.978;8.298;2023-09-19T06:45:34;20.00;64.70
23713;DHT22;12035;49.978;8.298;2023-09-19T06:50:31;20.20;64.40
23713;DHT22;12035;49.978;8.298;2023-09-19T06:55:31;20.20;63.90
23713;DHT22;12035;49.978;8.298;2023-09-19T07:00:28;20.30;63.90
23713;DHT22;12035;49.978;8.298;2023-09-19T07:05:27;20.40;63.60
23713;DHT22;12035;49.978;8.298;2023-09-19T07:10:24;20.50;63.30
23713;DHT22;12035;49.978;8.298;2023-09-19T07:15:24;20.60;62.90
23713;DHT22;12035;49.978;8.298;2023-09-19T07:20:21;20.70;62.60
23713;DHT22;12035;49.978;8.298;2023-09-19T07:25:21;20.70;62.50
23713;DHT22;12035;49.978;8.298;2023-09-19T07:30:18;20.80;62.20
23713;DHT22;12035;49.978;8.298;2023-09-19T07:35:17;20.90;62.20
23713;DHT22;12035;49.978;8.298;2023-09-19T07:40:15;21.00;62.20
23713;DHT22;12035;49.978;8.298;2023-09-19T07:45:13;21.10;61.80
23713;DHT22;12035;49.978;8.298;2023-09-19T07:50:10;21.20;61.60
23713;DHT22;12035;49.978;8.298;2023-09-19T07:55:09;21.40;60.80
23713;DHT22;12035;49.978;8.298;2023-09-19T08:00:07;21.50;60.80
23713;DHT22;12035;49.978;8.298;2023-09-19T08:05:08;21.60;59.90
23713;DHT22;12035;49.978;8.298;2023-09-19T08:10:09;21.80;58.70
23713;DHT22;12035;49.978;8.298;2023-09-19T08:15:08;21.90;57.00
23713;DHT22;12035;49.978;8.298;2023-09-19T08:20:07;22.00;56.40
23713;DHT22;12035;49.978;8.298;2023-09-19T08:25:13;22.20;56.10
23713;DHT22;12035;49.978;8.298;2023-09-19T08:30:13;22.40;56.10
23713;DHT22;12035;49.978;8.298;2023-09-19T08:35:11;22.70;54.90
23713;DHT22;12035;49.978;8.298;2023-09-19T08:40:09;22.90;53.50
23713;DHT22;12035;49.978;8.298;2023-09-19T08:45:10;23.00;52.20
23713;DHT22;12035;49.978;8.298;2023-09-19T08:50:12;23.10;52.10
23713;DHT22;12035;49.978;8.298;2023-09-19T08:55:16;23.10;52.20
23713;DHT22;12035;49.978;8.298;2023-09-19T09:00:18;23.30;51.50
23713;DHT22;12035;49.978;8.298;2023-09-19T09:05:16;23.30;51.10
23713;DHT22;12035;49.978;8.298;2023-09-19T09:10:18;23.30;50.40
23713;DHT22;12035;49.978;8.298;2023-09-19T09:15:19;23.40;50.00
23713;DHT22;12035;49.978;8.298;2023-09-19T09:20:18;23.50;49.60
23713;DHT22;12035;49.978;8.298;2023-09-19T09:25:16;23.50;49.40
23713;DHT22;12035;49.978;8.298;2023-09-19T09:30:34;23.60;49.70
23713;DHT22;12035;49.978;8.298;2023-09-19T09:35:33;23.70;49.40
23713;DHT22;12035;49.978;8.298;2023-09-19T09:40:46;23.80;49.30
23713;DHT22;12035;49.978;8.298;2023-09-19T09:45:55;23.90;48.30
23713;DHT22;12035;49.978;8.298;2023-09-19T09:51:14;24.00;48.80
23713;DHT22;12035;49.978;8.298;2023-09-19T09:56:14;24.00;49.00
23713;DHT22;12035;49.978;8.298;2023-09-19T10:01:13;24.10;48.50
23713;DHT22;12035;49.978;8.298;2023-09-19T10:06:12;24.20;47.70
23713;DHT22;12035;49.978;8.298;2023-09-19T10:11:21;24.30;47.10
23713;DHT22;12035;49.978;8.298;2023-09-19T10:16:29;24.40;46.70
23713;DHT22;12035;49.978;8.298;2023-09-19T10:21:28;24.40;45.90
23713;DHT22;12035;49.978;8.298;2023-09-19T10:26:26;24.40;45.50
23713;DHT22;12035;49.978;8.298;2023-09-19T10:31:28;24.50;45.50
23713;DHT22;12035;49.978;8.298;2023-09-19T10:36:26;24.60;46.10
23713;DHT22;12035;49.978;8.298;2023-09-19T10:41:28;24.70;45.50
23713;DHT22;12035;49.978;8.298;2023-09-19T10:46:27;25.00;45.90
23713;DHT22;12035;49.978;8.298;2023-09-19T10:51:27;25.20;45.00
23713;DHT22;12035;49.978;8.298;2023-09-19T10:56:30;25.40;44.70
23713;DHT22;12035;49.978;8.298;2023-09-19T11:01:43;25.60;44.70
23713;DHT22;12035;49.978;8.298;2023-09-19T11:06:42;25.70;43.70
23713;DHT22;12035;49.978;8.298;2023-09-19T11:11:58;25.80;44.00
23713;DHT22;12035;49.978;8.298;2023-09-19T11:28:31;26.20;41.40
23713;DHT22;12035;49.978;8.298;2023-09-19T11:33:45;26.20;40.20
23713;DHT22;12035;49.978;8.298;2023-09-19T11:39:00;26.20;40.50
23713;DHT22;12035;49.978;8.298;2023-09-19T11:44:33;26.10;40.80
23713;DHT22;12035;49.978;8.298;2023-09-19T11:49:35;26.00;40.80
23713;DHT22;12035;49.978;8.298;2023-09-19T11:54:38;26.00;40.70
23713;DHT22;12035;49.978;8.298;2023-09-19T11:59:39;26.00;41.10
23713;DHT22;12035;49.978;8.298;2023-09-19T12:04:38;26.00;40.60
23713;DHT22;12035;49.978;8.298;2023-09-19T12:09:39;25.90;40.70
23713;DHT22;12035;49.978;8.298;2023-09-19T12:14:39;25.90;40.70
23713;DHT22;12035;49.978;8.298;2023-09-19T12:19:49;25.90;40.70
23713;DHT22;12035;49.978;8.298;2023-09-19T12:24:47;26.00;40.10
23713;DHT22;12035;49.978;8.298;2023-09-19T12:29:47;26.00;40.40
23713;DHT22;12035;49.978;8.298;2023-09-19T12:34:52;25.90;39.00
23713;DHT22;12035;49.978;8.298;2023-09-19T12:39:51;25.90;38.80
23713;DHT22;12035;49.978;8.298;2023-09-19T12:44:52;25.80;38.70
23713;DHT22;12035;49.978;8.298;2023-09-19T12:50:10;25.70;38.70
23713;DHT22;12035;49.978;8.298;2023-09-19T12:55:23;25.60;39.10
23713;DHT22;12035;49.978;8.298;2023-09-19T13:00:21;25.50;39.40
23713;DHT22;12035;49.978;8.298;2023-09-19T13:05:21;25.50;39.20
23713;DHT22;12035;49.978;8.298;2023-09-19T13:10:18;25.40;39.40
23713;DHT22;12035;49.978;8.298;2023-09-19T13:15:20;25.30;39.60
23713;DHT22;12035;49.978;8.298;2023-09-19T13:20:26;25.30;39.20
23713;DHT22;12035;49.978;8.298;2023-09-19T13:25:24;25.30;39.50
23713;DHT22;12035;49.978;8.298;2023-09-19T13:30:26;25.30;39.70
23713;DHT22;12035;49.978;8.298;2023-09-19T13:35:26;25.20;39.20
23713;DHT22;12035;49.978;8.298;2023-09-19T13:40:23;25.20;39.60
23713;DHT22;12035;49.978;8.298;2023-09-19T13:45:20;25.20;39.50
23713;DHT22;12035;49.978;8.298;2023-09-19T13:50:20;25.20;38.90
23713;DHT22;12035;49.978;8.298;2023-09-19T13:55:21;25.20;39.20
23713;DHT22;12035;49.978;8.298;2023-09-19T14:00:18;25.10;39.60
23713;DHT22;12035;49.978;8.298;2023-09-19T14:05:15;25.10;39.70
23713;DHT22;12035;49.978;8.298;2023-09-19T14:10:12;25.10;39.30
23713;DHT22;12035;49.978;8.298;2023-09-19T14:15:11;25.10;39.40
23713;DHT22;12035;49.978;8.298;2023-09-19T14:20:09;25.00;39.60
23713;DHT22;12035;49.978;8.298;2023-09-19T14:25:07;25.00;39.20
23713;DHT22;12035;49.978;8.298;2023-09-19T14:30:06;25.00;39.60
23713;DHT22;12035;49.978;8.298;2023-09-19T14:35:07;25.00;39.60
23713;DHT22;12035;49.978;8.298;2023-09-19T14:40:06;24.90;39.60
23713;DHT22;12035;49.978;8.298;2023-09-19T14:45:09;24.90;40.10
23713;DHT22;12035;49.978;8.298;2023-09-19T14:50:09;24.90;40.30
23713;DHT22;12035;49.978;8.298;2023-09-19T14:55:08;24.90;40.60
23713;DHT22;12035;49.978;8.298;2023-09-19T15:00:12;25.00;40.80
23713;DHT22;12035;49.978;8.298;2023-09-19T15:05:11;25.00;40.30
23713;DHT22;12035;49.978;8.298;2023-09-19T15:10:11;25.00;40.30
23713;DHT22;12035;49.978;8.298;2023-09-19T15:15:09;25.00;40.80
23713;DHT22;12035;49.978;8.298;2023-09-19T15:20:09;25.10;40.70
23713;DHT22;12035;49.978;8.298;2023-09-19T15:25:09;25.10;40.80
23713;DHT22;12035;49.978;8.298;2023-09-19T15:30:08;25.10;41.00
23713;DHT22;12035;49.978;8.298;2023-09-19T15:35:07;25.20;41.20
23713;DHT22;12035;49.978;8.298;2023-09-19T15:40:10;25.20;41.10
23713;DHT22;12035;49.978;8.298;2023-09-19T15:45:09;25.30;41.50
23713;DHT22;12035;49.978;8.298;2023-09-19T15:50:07;25.30;41.90
23713;DHT22;12035;49.978;8.298;2023-09-19T15:55:06;25.30;42.10
23713;DHT22;12035;49.978;8.298;2023-09-19T16:00:06;25.40;42.00
23713;DHT22;12035;49.978;8.298;2023-09-19T16:05:09;25.40;41.90
23713;DHT22;12035;49.978;8.298;2023-09-19T16:10:07;25.30;42.10
23713;DHT22;12035;49.978;8.298;2023-09-19T16:15:07;25.30;42.30
23713;DHT22;12035;49.978;8.298;2023-09-19T16:20:07;25.20;42.40
23713;DHT22;12035;49.978;8.298;2023-09-19T16:25:07;25.10;42.60
23713;DHT22;12035;49.978;8.298;2023-09-19T16:30:09;25.10;42.90
23713;DHT22;12035;49.978;8.298;2023-09-19T16:35:07;25.10;43.20
23713;DHT22;12035;49.978;8.298;2023-09-19T16:40:06;25.00;43.40
23713;DHT22;12035;49.978;8.298;2023-09-19T16:45:05;25.00;43.50
23713;DHT22;12035;49.978;8.298;2023-09-19T16:50:05;25.00;43.70
23713;DHT22;12035;49.978;8.298;2023-09-19T16:55:06;25.00;43.90
23713;DHT22;12035;49.978;8.298;2023-09-19T17:00:04;25.00;44.10
23713;DHT22;12035;49.978;8.298;2023-09-19T17:05:05;24.90;44.40
23713;DHT22;12035;49.978;8.298;2023-09-19T17:10:04;24.80;44.50
23713;DHT22;12035;49.978;8.298;2023-09-19T17:15:03;24.80;44.80
23713;DHT22;12035;49.978;8.298;2023-09-19T17:20:02;24.80;45.60
23713;DHT22;12035;49.978;8.298;2023-09-19T17:25:01;24.70;45.10
23713;DHT22;12035;49.978;8.298;2023-09-19T17:29:58;24.70;45.20
23713;DHT22;12035;49.978;8.298;2023-09-19T17:34:56;24.60;45.30
23713;DHT22;12035;49.978;8.298;2023-09-19T17:39:55;24.60;45.50
23713;DHT22;12035;49.978;8.298;2023-09-19T17:44:55;24.50;45.60
23713;DHT22;12035;49.978;8.298;2023-09-19T17:49:52;24.40;45.70
23713;DHT22;12035;49.978;8.298;2023-09-19T17:54:50;24.40;45.90
23713;DHT22;12035;49.978;8.298;2023-09-19T17:59:48;24.30;46.00
23713;DHT22;12035;49.978;8.298;2023-09-19T18:04:47;24.20;46.20
23713;DHT22;12035;49.978;8.298;2023-09-19T18:09:44;24.10;46.30
23713;DHT22;12035;49.978;8.298;2023-09-19T18:14:43;24.00;46.50
23713;DHT22;12035;49.978;8.298;2023-09-19T18:19:41;23.90;46.50
23713;DHT22;12035;49.978;8.298;2023-09-19T18:24:38;23.90;46.80
23713;DHT22;12035;49.978;8.298;2023-09-19T18:29:37;23.80;46.70
23713;DHT22;12035;49.978;8.298;2023-09-19T18:34:37;23.80;46.80
23713;DHT22;12035;49.978;8.298;2023-09-19T18:39:38;23.70;46.90
23713;DHT22;12035;49.978;8.298;2023-09-19T18:44:35;23.70;47.00
23713;DHT22;12035;49.978;8.298;2023-09-19T18:49:32;23.60;47.20
23713;DHT22;12035;49.978;8.298;2023-09-19T18:54:31;23.60;47.20
23713;DHT22;12035;49.978;8.298;2023-09-19T18:59:30;23.50;47.30
23713;DHT22;12035;49.978;8.298;2023-09-19T19:04:29;23.40;47.50
23713;DHT22;12035;49.978;8.298;2023-09-19T19:09:26;23.40;47.50
23713;DHT22;12035;49.978;8.298;2023-09-19T19:14:23;23.30;47.50
23713;DHT22;12035;49.978;8.298;2023-09-19T19:19:22;23.30;47.70
23713;DHT22;12035;49.978;8.298;2023-09-19T19:24:19;23.20;47.90
23713;DHT22;12035;49.978;8.298;2023-09-19T19:29:18;23.10;48.10
23713;DHT22;12035;49.978;8.298;2023-09-19T19:34:16;23.00;48.30
23713;DHT22;12035;49.978;8.298;2023-09-19T19:39:14;22.90;48.40
23713;DHT22;12035;49.978;8.298;2023-09-19T19:44:13;22.80;48.60
23713;DHT22;12035;49.978;8.298;2023-09-19T19:49:10;22.70;48.70
23713;DHT22;12035;49.978;8.298;2023-09-19T19:54:07;22.60;48.90
23713;DHT22;12035;49.978;8.298;2023-09-19T19:59:06;22.50;49.00
23713;DHT22;12035;49.978;8.298;2023-09-19T20:04:03;22.40;49.20
23713;DHT22;12035;49.978;8.298;2023-09-19T20:09:01;22.40;49.30
23713;DHT22;12035;49.978;8.298;2023-09-19T20:14:00;22.30;49.50
23713;DHT22;12035;49.978;8.298;2023-09-19T20:19:02;22.20;49.70
23713;DHT22;12035;49.978;8.298;2023-09-19T20:24:01;22.10;49.90
23713;DHT22;12035;49.978;8.298;2023-09-19T20:29:01;22.10;50.10
23713;DHT22;12035;49.978;8.298;2023-09-19T20:34:00;22.10;50.20
23713;DHT22;12035;49.978;8.298;2023-09-19T20:38:57;22.10;50.50
23713;DHT22;12035;49.978;8.298;2023-09-19T20:43:54;22.00;50.50
23713;DHT22;12035;49.978;8.298;2023-09-19T20:48:51;22.10;50.70
23713;DHT22;12035;49.978;8.298;2023-09-19T20:53:50;22.10;50.90
23713;DHT22;12035;49.978;8.298;2023-09-19T20:58:48;22.00;51.00
23713;DHT22;12035;49.978;8.298;2023-09-19T21:03:45;22.10;51.10
23713;DHT22;12035;49.978;8.298;2023-09-19T21:08:43;22.00;51.00
23713;DHT22;12035;49.978;8.298;2023-09-19T21:13:42;22.00;51.00
23713;DHT22;12035;49.978;8.298;2023-09-19T21:18:40;22.00;51.20
23713;DHT22;12035;49.978;8.298;2023-09-19T21:23:37;22.00;51.20
23713;DHT22;12035;49.978;8.298;2023-09-19T21:28:34;22.00;51.30
23713;DHT22;12035;49.978;8.298;2023-09-19T21:33:35;21.90;51.40
23713;DHT22;12035;49.978;8.298;2023-09-19T21:38:33;21.90;51.70
23713;DHT22;12035;49.978;8.298;2023-09-19T21:43:30;21.80;51.70
23713;DHT22;12035;49.978;8.298;2023-09-19T21:48:27;21.70;51.90
23713;DHT22;12035;49.978;8.298;2023-09-19T21:53:26;21.70;52.00
23713;DHT22;12035;49.978;8.298;2023-09-19T21:58:23;21.60;52.20
23713;DHT22;12035;49.978;8.298;2023-09-19T22:03:20;21.60;52.20
23713;DHT22;12035;49.978;8.298;2023-09-19T22:08:20;21.70;52.20
23713;DHT22;12035;49.978;8.298;2023-09-19T22:13:18;21.60;52.30
23713;DHT22;12035;49.978;8.298;2023-09-19T22:18:17;21.70;52.40
23713;DHT22;12035;49.978;8.298;2023-09-19T22:23:17;21.70;52.20
23713;DHT22;12035;49.978;8.298;2023-09-19T22:28:14;21.80;52.40
23713;DHT22;12035;49.978;8.298;2023-09-19T22:33:13;21.80;52.30
23713;DHT22;12035;49.978;8.298;2023-09-19T22:38:11;21.80;52.40
23713;DHT22;12035;49.978;8.298;2023-09-19T22:43:09;21.90;52.40
23713;DHT22;12035;49.978;8.298;2023-09-19T22:48:08;21.90;52.40
23713;DHT22;12035;49.978;8.298;2023-09-19T22:53:14;22.00;52.30
23713;DHT22;12035;49.978;8.298;2023-09-19T22:58:15;22.00;52.40
23713;DHT22;12035;49.978;8.298;2023-09-19T23:03:13;22.10;52.20
23713;DHT22;12035;49.978;8.298;2023-09-19T23:08:13;22.10;52.20
23713;DHT22;12035;49.978;8.298;2023-09-19T23:13:11;22.10;52.30
23713;DHT22;12035;49.978;8.298;2023-09-19T23:18:12;22.20;52.20
23713;DHT22;12035;49.978;8.298;2023-09-19T23:23:09;22.20;52.20
23713;DHT22;12035;49.978;8.298;2023-09-19T23:28:11;22.20;52.20
23713;DHT22;12035;49.978;8.298;2023-09-19T23:33:10;22.10;52.40
23713;DHT22;12035;49.978;8.298;2023-09-19T23:38:08;22.10;52.50
23713;DHT22;12035;49.978;8.298;2023-09-19T23:43:05;22.00;53.10
23713;DHT22;12035;49.978;8.298;2023-09-19T23:48:08;21.90;53.30
23713;DHT22;12035;49.978;8.298;2023-09-19T23:53:07;21.80;53.50
23713;DHT22;12035;49.978;8.298;2023-09-19T23:58:06;21.70;54.10
